Time;durP1;ratioP1;P1;durP2;ratioP2;P2;SDS_P1;SDS_P2;PMS_P1;PMS_P2;Temp;Humidity;BMP_temperature;BMP_pressure;BME280_temperature;BME280_humidity;BME280_pressure;Samples;Min_cycle;Max_cycle;Signal;HPM_P1;HPM_P2
2021/10/05 00:01:30;;;;;;;0.70;0.70;;;20.70;99.90;;;20.76;52.04;100973.94;5028924;27;101345;-48
2021/10/05 00:03:56;;;;;;;2.10;1.33;;;20.60;99.90;;;20.62;48.26;100982.13;5028633;27;99411;-44
2021/10/05 00:06:22;;;;;;;1.53;1.10;;;20.50;96.20;;;20.54;52.41;100974.63;5047868;27;97527;-50
2021/10/05 00:08:48;;;;;;;2.40;1.00;;;20.30;99.90;;;20.49;52.52;100980.34;5051544;27;97364;-48
2021/10/05 00:11:14;;;;;;;1.87;1.30;;;20.20;99.90;;;20.44;52.39;100987.84;5026815;27;100030;-49
2021/10/05 00:13:41;;;;;;;1.07;0.97;;;20.20;99.40;;;20.36;52.93;100982.16;5030473;27;99645;-53
2021/10/05 00:16:08;;;;;;;1.33;1.10;;;20.00;99.90;;;20.25;52.93;100995.44;5023526;27;99295;-47
2021/10/05 00:18:35;;;;;;;1.10;1.00;;;19.90;99.90;;;20.16;53.55;100985.38;5014348;27;101624;-50
2021/10/05 00:21:05;;;;;;;1.00;0.90;;;19.70;99.90;;;20.18;53.62;100978.94;5027090;27;98455;-52
2021/10/05 00:23:31;;;;;;;1.13;1.03;;;19.80;99.90;;;20.20;53.17;100970.81;5029219;27;101636;-50
2021/10/05 00:25:57;;;;;;;1.43;1.00;;;19.90;99.90;;;20.20;53.34;100971.66;5030420;27;99319;-48
2021/10/05 00:28:23;;;;;;;0.77;0.77;;;19.90;99.90;;;20.18;53.42;100962.03;5050009;27;97483;-52
2021/10/05 00:30:49;;;;;;;1.30;1.03;;;19.90;99.90;;;20.16;53.25;100966.66;5037212;27;101111;-52
2021/10/05 00:33:15;;;;;;;1.73;1.30;;;19.90;99.60;;;20.07;53.30;100959.25;5025117;27;110515;-47
2021/10/05 00:35:41;;;;;;;1.30;0.97;;;19.70;99.00;;;19.97;53.83;100945.66;5033566;27;98763;-48
2021/10/05 00:38:07;;;;;;;2.87;1.07;;;19.60;99.90;;;19.96;53.88;100951.09;5058781;27;99737;-45
2021/10/05 00:40:33;;;;;;;1.10;1.00;;;19.50;99.90;;;19.90;54.05;100947.91;5068352;27;98923;-47
2021/10/05 00:42:59;;;;;;;1.10;1.00;;;19.50;99.90;;;19.88;54.32;100947.16;5048434;27;106316;-47
2021/10/05 00:45:24;;;;;;;0.90;0.90;;;19.50;99.90;;;19.88;54.44;100948.97;5051821;27;97228;-45
2021/10/05 00:47:50;;;;;;;0.67;0.67;;;19.50;99.90;;;19.91;54.67;100946.09;5075297;27;98148;-48
2021/10/05 00:50:17;;;;;;;0.80;0.80;;;19.50;99.90;;;19.94;54.39;100936.97;5046971;27;97861;-51
2021/10/05 00:52:43;;;;;;;1.07;0.97;;;19.60;99.90;;;19.88;54.34;100936.44;5069703;27;98197;-48
2021/10/05 00:55:13;;;;;;;1.33;0.97;;;19.50;99.90;;;19.85;54.61;100928.66;5054984;27;97504;-49
2021/10/05 00:57:39;;;;;;;1.57;0.90;;;19.40;99.90;;;19.83;54.72;100935.94;5051028;27;96835;-47
2021/10/05 01:00:07;;;;;;;0.90;0.80;;;19.40;99.90;;;19.75;54.99;100938.28;5064939;27;97565;-49
2021/10/05 01:02:34;;;;;;;1.20;1.10;;;19.30;99.90;;;19.78;54.81;100932.69;5057577;27;98532;-46
2021/10/05 01:05:00;;;;;;;1.47;1.13;;;19.30;99.90;;;19.79;54.94;100926.38;5069596;27;97248;-46
2021/10/05 01:07:28;;;;;;;0.77;0.77;;;19.40;99.90;;;19.78;54.78;100919.31;5054618;27;97051;-47
2021/10/05 01:09:54;;;;;;;1.03;0.93;;;19.40;99.90;;;19.83;54.99;100914.50;5049106;27;97719;-48
2021/10/05 01:12:20;;;;;;;0.80;0.77;;;19.40;99.90;;;19.87;54.61;100916.00;5053180;27;118366;-44
2021/10/05 01:14:46;;;;;;;1.30;0.90;;;19.50;99.90;;;19.88;54.54;100912.34;5074515;27;97334;-47
2021/10/05 01:17:12;;;;;;;0.80;0.80;;;19.60;99.90;;;19.95;54.37;100911.91;5062823;27;97389;-49
2021/10/05 01:19:40;;;;;;;1.13;1.00;;;19.60;99.90;;;20.03;54.02;100898.84;5050924;27;98926;-47
2021/10/05 01:22:06;;;;;;;0.87;0.80;;;19.80;99.90;;;20.05;53.99;100902.28;5044311;27;97954;-44
2021/10/05 01:24:33;;;;;;;1.63;0.97;;;19.80;99.90;;;20.08;53.93;100896.69;5064873;27;97733;-47
2021/10/05 01:27:00;;;;;;;0.80;0.80;;;19.80;99.90;;;20.12;53.97;100887.50;5052342;27;98126;-46
2021/10/05 01:29:30;;;;;;;0.97;0.83;;;19.90;99.90;;;20.18;53.85;100876.34;5066640;27;97845;-47
2021/10/05 01:31:59;;;;;;;0.90;0.90;;;20.00;99.90;;;20.18;53.95;100877.19;5065839;27;97052;-45
2021/10/05 01:34:26;;;;;;;1.20;0.90;;;20.00;99.90;;;20.23;53.67;100868.81;5055472;27;97839;-46
2021/10/05 01:36:54;;;;;;;0.70;0.60;;;20.00;99.90;;;20.28;53.40;100864.00;5051950;27;97405;-50
2021/10/05 01:39:32;;;;;;;1.03;0.93;;;20.10;99.90;;;20.34;53.40;100866.22;5065572;27;97498;-46
2021/10/05 01:42:06;;;;;;;0.93;0.83;;;20.20;99.90;;;20.38;53.20;100865.00;5060373;27;102371;-46
2021/10/05 01:44:34;;;;;;;1.20;1.10;;;20.20;99.90;;;20.39;53.31;100858.69;5049499;27;97162;-48
2021/10/05 01:47:05;;;;;;;0.70;0.60;;;20.30;99.90;;;20.45;52.84;100863.63;5043665;27;97017;-46
2021/10/05 01:49:31;;;;;;;0.70;0.63;;;20.30;99.90;;;20.49;52.73;100854.41;5071773;27;97838;-44
2021/10/05 01:51:57;;;;;;;1.10;0.80;;;20.40;99.90;;;20.55;52.62;100852.25;5058392;27;104001;-47
2021/10/05 01:54:23;;;;;;;1.03;0.80;;;20.50;99.90;;;20.59;52.44;100837.66;5056116;27;98861;-47
2021/10/05 01:56:49;;;;;;;1.50;0.87;;;20.50;99.90;;;20.61;52.47;100833.88;5047143;27;97195;-45
2021/10/05 01:59:15;;;;;;;0.87;0.80;;;20.50;99.90;;;20.64;52.20;100824.75;5071077;27;97530;-47
2021/10/05 02:01:41;;;;;;;0.80;0.70;;;20.60;99.90;;;20.65;52.19;100829.13;5067728;27;98284;-45
2021/10/05 02:04:09;;;;;;;1.10;0.80;;;20.60;99.90;;;20.67;52.50;100824.50;5065107;27;97193;-47
2021/10/05 02:06:37;;;;;;;1.07;0.67;;;20.60;99.90;;;20.68;52.13;100823.53;5048909;27;97960;-47
2021/10/05 02:09:05;;;;;;;0.87;0.70;;;20.60;99.90;;;20.69;52.06;100814.56;5030019;27;99027;-48
2021/10/05 02:11:31;;;;;;;0.73;0.73;;;20.70;99.90;;;20.73;51.96;100810.66;5054061;27;100359;-46
2021/10/05 02:13:57;;;;;;;0.73;0.73;;;20.70;99.90;;;20.75;51.83;100808.72;5043851;27;97806;-50
2021/10/05 02:16:23;;;;;;;1.03;0.80;;;20.70;99.90;;;20.76;51.97;100803.25;5040567;27;97654;-47
2021/10/05 02:18:50;;;;;;;0.97;0.83;;;20.70;99.90;;;20.77;51.76;100806.78;5065712;27;98424;-48
2021/10/05 02:21:17;;;;;;;0.70;0.70;;;20.70;99.90;;;20.77;51.95;100793.38;5051111;27;97156;-48
2021/10/05 02:26:31;;;;;;;1.20;1.10;;;20.80;99.90;;;20.76;51.72;100784.47;5063842;27;96991;-48
2021/10/05 02:28:57;;;;;;;2.00;0.97;;;20.70;99.90;;;20.79;51.93;100788.75;5046275;27;97768;-46
2021/10/05 02:31:23;;;;;;;0.80;0.80;;;20.70;99.90;;;20.79;51.83;100780.72;5054286;27;100772;-49
2021/10/05 02:33:48;;;;;;;0.83;0.77;;;20.80;99.90;;;20.79;51.86;100784.25;5048003;27;103122;-50
2021/10/05 02:36:14;;;;;;;1.17;0.83;;;20.70;99.90;;;20.81;51.80;100778.75;5046250;27;105697;-48
2021/10/05 02:38:40;;;;;;;0.70;0.70;;;20.80;99.90;;;20.80;51.76;100782.41;5053447;27;99760;-47
2021/10/05 02:41:06;;;;;;;0.70;0.70;;;20.80;99.90;;;20.80;51.81;100782.41;5042776;27;98200;-48
2021/10/05 02:43:32;;;;;;;0.70;0.70;;;20.70;99.90;;;20.79;51.80;100775.34;5056741;27;97461;-46
2021/10/05 02:45:58;;;;;;;1.13;1.00;;;20.70;99.90;;;20.81;51.66;100773.41;5044858;27;97203;-47
2021/10/05 02:48:24;;;;;;;0.60;0.60;;;20.70;99.90;;;20.82;51.93;100775.09;5050611;27;100780;-47
2021/10/05 02:50:50;;;;;;;1.20;0.80;;;20.80;99.90;;;20.81;51.58;100762.66;5065353;27;96800;-43
2021/10/05 02:53:16;;;;;;;1.50;0.90;;;20.80;99.90;;;20.83;51.54;100759.88;5049100;27;98459;-47
2021/10/05 02:55:43;;;;;;;0.77;0.70;;;20.80;99.90;;;20.83;51.63;100743.78;5067654;27;97469;-46
2021/10/05 02:58:09;;;;;;;0.80;0.70;;;20.80;99.90;;;20.83;51.63;100747.34;5044660;27;97403;-47
2021/10/05 03:00:35;;;;;;;0.90;0.90;;;20.80;99.90;;;20.83;51.54;100739.31;5056366;27;96927;-45
2021/10/05 03:03:01;;;;;;;0.90;0.70;;;20.80;99.70;;;20.84;51.53;100740.16;5058492;27;97376;-45
2021/10/05 03:05:27;;;;;;;0.60;0.60;;;20.80;99.90;;;20.84;51.60;100741.00;5051093;27;96926;-45
2021/10/05 03:07:53;;;;;;;1.00;0.80;;;20.80;99.90;;;20.85;51.68;100734.69;5047700;27;107070;-50
2021/10/05 03:10:19;;;;;;;1.97;0.90;;;20.80;99.90;;;20.85;51.57;100732.00;5067793;27;99851;-44
2021/10/05 03:12:45;;;;;;;0.90;0.90;;;20.90;99.90;;;20.86;51.31;100728.34;5053046;27;97504;-46
2021/10/05 03:15:11;;;;;;;0.80;0.80;;;20.90;99.90;;;20.87;51.48;100726.50;5046988;27;98131;-49
2021/10/05 03:17:37;;;;;;;0.70;0.60;;;20.80;99.70;;;20.85;51.44;100726.63;5066048;27;98673;-45
2021/10/05 03:20:04;;;;;;;0.80;0.80;;;20.80;99.90;;;20.83;51.69;100715.19;5055281;27;117297;-45
2021/10/05 03:22:30;;;;;;;1.27;0.70;;;20.70;99.90;;;20.82;51.58;100710.75;5036708;27;97636;-44
2021/10/05 03:24:55;;;;;;;0.70;0.70;;;20.70;99.90;;;20.79;51.59;100701.13;5062514;27;97886;-47
2021/10/05 03:27:21;;;;;;;1.30;0.70;;;20.70;99.90;;;20.77;51.49;100711.13;5072399;27;97659;-45
2021/10/05 03:29:47;;;;;;;0.83;0.70;;;20.70;99.90;;;20.78;51.53;100698.59;5069251;27;107473;-46
2021/10/05 03:32:13;;;;;;;1.40;0.93;;;20.70;99.90;;;20.74;51.67;100702.47;5061568;27;104545;-46
2021/10/05 03:34:38;;;;;;;0.97;0.87;;;20.60;99.90;;;20.73;51.68;100700.78;5068789;27;97069;-46
2021/10/05 03:37:04;;;;;;;1.07;0.90;;;20.60;99.90;;;20.73;51.78;100684.69;5042814;27;111145;-46
2021/10/05 03:39:30;;;;;;;1.27;0.90;;;20.60;99.60;;;20.70;51.51;100684.94;5072462;27;98079;-44
2021/10/05 03:41:56;;;;;;;2.33;0.73;;;20.60;99.50;;;20.71;51.95;100686.66;5044490;27;97404;-46
2021/10/05 03:44:22;;;;;;;1.90;0.90;;;20.60;99.90;;;20.68;51.83;100692.22;5073658;27;96910;-51
2021/10/05 03:46:48;;;;;;;1.00;0.70;;;20.60;99.90;;;20.61;52.06;100685.63;5063190;27;100945;-47
2021/10/05 03:49:13;;;;;;;1.20;1.00;;;20.50;99.90;;;20.58;52.33;100688.56;5048787;27;99142;-51
2021/10/05 03:51:39;;;;;;;0.80;0.80;;;20.40;99.90;;;20.53;52.32;100693.41;5068914;27;99556;-47
2021/10/05 03:54:05;;;;;;;1.20;0.77;;;20.30;99.90;;;20.48;52.53;100691.94;5043884;27;97469;-44
2021/10/05 03:56:31;;;;;;;1.43;0.90;;;20.30;99.90;;;20.46;52.60;100683.16;5068249;27;100294;-48
2021/10/05 03:58:57;;;;;;;1.13;0.97;;;20.30;99.90;;;20.48;52.60;100675.84;5042309;27;99435;-45
2021/10/05 04:01:22;;;;;;;0.70;0.67;;;20.30;99.90;;;20.48;52.30;100681.22;5073423;27;97927;-45
2021/10/05 04:03:48;;;;;;;2.10;1.00;;;20.30;99.90;;;20.52;52.23;100675.63;5049151;27;97300;-45
2021/10/05 04:06:14;;;;;;;1.33;1.00;;;20.40;99.90;;;20.53;52.30;100671.97;5070227;27;99405;-46
2021/10/05 04:08:40;;;;;;;1.47;1.00;;;20.40;99.90;;;20.55;52.62;100664.69;5052094;27;116508;-46
2021/10/05 04:11:06;;;;;;;1.20;0.63;;;20.40;99.90;;;20.57;52.45;100665.41;5051557;27;98235;-43
2021/10/05 04:13:31;;;;;;;0.73;0.73;;;20.50;99.90;;;20.59;52.30;100655.44;5058526;27;105756;-42
2021/10/05 04:15:58;;;;;;;0.80;0.80;;;20.50;99.90;;;20.59;52.31;100655.44;5032356;27;98240;-44
2021/10/05 04:18:24;;;;;;;1.30;0.73;;;20.50;99.90;;;20.58;52.31;100648.38;5076298;27;98403;-45
2021/10/05 04:20:50;;;;;;;0.70;0.70;;;20.50;99.90;;;20.59;52.32;100655.44;5064894;27;97131;-46
2021/10/05 04:23:17;;;;;;;0.87;0.73;;;20.40;99.90;;;20.60;52.45;100651.78;5065873;27;96926;-47
2021/10/05 04:25:43;;;;;;;1.17;0.80;;;20.50;99.90;;;20.58;52.33;100643.84;5052176;27;99668;-46
2021/10/05 04:28:08;;;;;;;0.87;0.70;;;20.50;99.90;;;20.63;51.97;100644.34;5031685;27;97702;-49
2021/10/05 04:30:34;;;;;;;1.60;0.80;;;20.50;99.90;;;20.63;52.41;100632.78;5069876;27;97535;-45
2021/10/05 04:33:00;;;;;;;2.00;0.97;;;20.50;99.90;;;20.63;51.97;100630.94;5031861;27;97388;-49
2021/10/05 04:35:26;;;;;;;0.60;0.60;;;20.50;99.80;;;20.66;52.15;100632.53;5071661;27;113872;-47
2021/10/05 04:37:53;;;;;;;1.00;0.60;;;20.60;99.90;;;20.65;51.92;100628.13;5053213;27;98717;-48
2021/10/05 04:40:19;;;;;;;1.43;0.67;;;20.60;99.90;;;20.67;51.88;100626.19;5067324;27;97023;-47
2021/10/05 04:42:44;;;;;;;1.40;1.30;;;20.60;99.90;;;20.65;51.89;100625.47;5050385;27;97302;-47
2021/10/05 04:45:11;;;;;;;0.80;0.80;;;20.50;99.70;;;20.64;52.01;100627.28;5048005;27;100979;-46
2021/10/05 04:47:37;;;;;;;0.97;0.80;;;20.60;99.90;;;20.68;52.18;100617.19;5047022;27;99472;-48
2021/10/05 04:50:09;;;;;;;1.00;0.90;;;20.60;99.90;;;20.71;51.79;100611.59;5045798;27;98835;-48
2021/10/05 04:52:35;;;;;;;1.67;0.90;;;20.70;99.90;;;20.72;51.78;100619.50;5046926;27;97659;-48
2021/10/05 04:55:03;;;;;;;0.90;0.80;;;20.70;99.90;;;20.73;51.88;100615.00;5052354;27;100474;-47
2021/10/05 04:57:28;;;;;;;0.80;0.70;;;20.70;99.90;;;20.74;51.89;100614.03;5070726;27;99305;-46
2021/10/05 04:59:54;;;;;;;0.73;0.73;;;20.70;99.90;;;20.71;51.79;100607.09;5061642;27;98016;-48
2021/10/05 05:02:20;;;;;;;1.10;0.90;;;20.60;99.90;;;20.70;51.74;100609.91;5038300;27;97222;-45
2021/10/05 05:04:46;;;;;;;1.10;0.80;;;20.60;99.90;;;20.70;52.00;100610.75;5064282;27;114972;-43
2021/10/05 05:07:12;;;;;;;1.00;0.90;;;20.60;99.90;;;20.71;51.96;100603.56;5047071;27;99965;-46
2021/10/05 05:09:39;;;;;;;0.63;0.63;;;20.60;99.90;;;20.71;51.96;100598.19;5055389;27;97086;-45
2021/10/05 05:12:05;;;;;;;1.43;0.80;;;20.70;99.90;;;20.72;51.65;100591.88;5047940;27;97163;-47
2021/10/05 05:14:31;;;;;;;1.23;0.80;;;20.70;99.90;;;20.74;51.74;100589.91;5048308;27;96998;-48
2021/10/05 05:16:57;;;;;;;0.50;0.50;;;20.70;99.90;;;20.74;51.73;100584.56;5065587;27;97238;-48
2021/10/05 05:19:23;;;;;;;0.83;0.70;;;20.70;99.90;;;20.74;51.74;100558.59;5070394;27;98862;-43
2021/10/05 05:21:49;;;;;;;0.83;0.83;;;20.80;99.90;;;20.73;51.65;100550.69;5073073;27;97331;-47
2021/10/05 05:24:15;;;;;;;0.90;0.80;;;20.80;99.90;;;20.76;51.55;100558.47;5066942;27;97351;-45
2021/10/05 05:26:41;;;;;;;1.00;0.73;;;20.80;99.80;;;20.77;51.33;100554.81;5056790;27;97696;-50
2021/10/05 05:29:07;;;;;;;0.83;0.60;;;20.80;99.80;;;20.76;51.52;100555.78;5051182;27;98009;-48
2021/10/05 05:31:33;;;;;;;0.90;0.80;;;20.90;99.80;;;20.80;51.55;100562.59;5067809;27;98300;-47
2021/10/05 05:34:00;;;;;;;1.00;0.90;;;20.90;99.80;;;20.77;51.48;100542.25;5067215;27;97574;-44
2021/10/05 05:36:26;;;;;;;0.90;0.60;;;20.80;99.80;;;20.80;51.32;100549.19;5052186;27;99039;-44
2021/10/05 05:38:53;;;;;;;0.80;0.80;;;20.80;99.80;;;20.79;51.54;100560.91;5058321;27;96973;-46
2021/10/05 05:41:19;;;;;;;1.23;1.13;;;20.80;99.80;;;20.72;51.47;100549.84;5048643;27;97747;-44
2021/10/05 05:43:44;;;;;;;1.17;1.07;;;20.80;99.10;;;20.71;51.45;100541.91;5072152;27;98216;-47
2021/10/05 05:46:12;;;;;;;0.60;0.60;;;20.70;99.50;;;20.67;51.56;100540.44;5047103;27;97341;-45
2021/10/05 05:48:37;;;;;;;0.70;0.70;;;20.60;99.80;;;20.71;51.59;100536.56;5052735;27;97350;-47
2021/10/05 05:51:04;;;;;;;1.00;0.80;;;20.70;99.90;;;20.72;51.74;100530.22;5047881;27;100921;-47
2021/10/05 05:53:29;;;;;;;0.70;0.70;;;20.70;99.90;;;20.74;51.78;100537.16;5050322;27;98599;-44
2021/10/05 05:55:55;;;;;;;1.07;0.90;;;20.80;99.90;;;20.74;51.53;100534.47;5052157;27;98241;-45
2021/10/05 05:58:21;;;;;;;0.93;0.70;;;20.80;99.70;;;20.77;51.73;100533.38;5052368;27;106604;-46
2021/10/05 06:00:47;;;;;;;0.97;0.70;;;20.80;99.80;;;20.74;51.60;100536.31;5056564;27;99726;-45
2021/10/05 06:03:15;;;;;;;0.60;0.60;;;20.80;99.80;;;20.73;51.64;100534.59;5047772;27;98256;-47
2021/10/05 06:05:41;;;;;;;1.23;0.80;;;20.80;99.80;;;20.72;51.49;100532.91;5051051;27;97200;-49
2021/10/05 06:08:08;;;;;;;0.70;0.70;;;20.80;99.60;;;20.72;51.59;100530.22;5048542;27;97171;-44
2021/10/05 06:10:34;;;;;;;1.43;0.73;;;20.80;99.70;;;20.74;51.53;100525.59;5069971;27;97576;-44
2021/10/05 06:13:00;;;;;;;1.13;1.00;;;20.80;99.70;;;20.74;51.48;100536.31;5065888;27;97382;-45
2021/10/05 06:15:26;;;;;;;0.97;0.80;;;20.70;99.70;;;20.71;51.20;100528.53;5050487;27;97319;-48
2021/10/05 06:17:52;;;;;;;0.70;0.70;;;20.80;99.70;;;20.73;51.40;100535.44;5070653;27;98209;-43
2021/10/05 06:20:22;;;;;;;1.50;1.40;;;20.80;99.70;;;20.73;51.33;100523.88;5068993;27;97353;-46
2021/10/05 06:22:49;;;;;;;0.70;0.70;;;20.80;99.10;;;20.76;51.34;100519.13;5068221;27;97915;-44
2021/10/05 06:25:22;;;;;;;0.73;0.73;;;20.80;99.60;;;20.74;51.28;100515.72;5049004;27;98218;-46
2021/10/05 06:27:49;;;;;;;1.00;0.70;;;20.80;99.60;;;20.73;51.21;100508.66;5066331;27;96944;-50
2021/10/05 06:30:16;;;;;;;0.90;0.90;;;20.80;99.70;;;20.74;51.32;100515.72;5064436;27;96891;-43
2021/10/05 06:32:44;;;;;;;0.60;0.60;;;20.80;99.70;;;20.76;51.30;100507.53;5051556;27;97740;-49
2021/10/05 06:35:11;;;;;;;1.30;0.90;;;20.80;99.70;;;20.73;51.54;100497.09;5054188;27;97882;-44
2021/10/05 06:37:38;;;;;;;0.90;0.90;;;20.80;99.60;;;20.74;51.30;100504.16;5065442;27;96748;-45
2021/10/05 06:40:06;;;;;;;0.97;0.80;;;20.80;99.60;;;20.77;51.36;100510.09;5047612;27;97334;-44
2021/10/05 06:42:35;;;;;;;0.80;0.70;;;20.80;99.50;;;20.73;51.23;100502.44;5048503;27;99614;-47
2021/10/05 06:45:04;;;;;;;1.10;0.70;;;20.70;99.50;;;20.69;51.49;100501.00;5057398;27;103056;-45
2021/10/05 06:47:30;;;;;;;3.57;3.03;;;20.70;99.70;;;20.66;50.35;100495.84;5068928;27;98759;-46
2021/10/05 06:49:57;;;;;;;2.00;0.90;;;20.60;97.70;;;20.62;51.68;100497.09;5047902;27;97802;-47
2021/10/05 06:52:24;;;;;;;1.07;0.97;;;20.50;99.90;;;20.60;51.82;100501.72;5046672;27;97680;-48
2021/10/05 06:54:50;;;;;;;1.10;0.80;;;20.50;99.80;;;20.58;51.93;100503.66;5067735;27;98267;-44
2021/10/05 06:57:16;;;;;;;0.97;0.80;;;20.50;99.90;;;20.57;51.81;100505.50;5048910;27;98244;-44
2021/10/05 06:59:41;;;;;;;0.80;0.80;;;20.50;99.90;;;20.58;51.76;100509.03;5065687;27;97387;-46
2021/10/05 07:02:07;;;;;;;1.40;1.30;;;20.50;99.90;;;20.56;51.60;100500.25;5046315;27;100536;-47
2021/10/05 07:04:33;;;;;;;2.67;2.37;;;20.50;98.90;;;20.52;49.12;100499.63;5049506;27;96995;-48
2021/10/05 07:06:59;;;;;;;1.60;1.10;;;20.40;98.10;;;20.54;51.35;100492.31;5058482;27;98047;-49
2021/10/05 07:09:25;;;;;;;2.20;1.93;;;20.50;99.20;;;20.54;50.54;100486.13;5068072;27;97623;-46
2021/10/05 07:11:50;;;;;;;1.60;1.50;;;20.50;98.80;;;20.50;51.90;100486.38;5051207;27;97636;-47
2021/10/05 07:14:16;;;;;;;0.70;0.70;;;20.40;99.60;;;20.50;52.26;100480.16;5046914;27;99419;-47
2021/10/05 07:16:42;;;;;;;1.67;0.80;;;20.40;99.90;;;20.55;52.01;100477.13;5048155;27;98992;-47
2021/10/05 07:19:08;;;;;;;0.70;0.70;;;20.50;99.90;;;20.58;51.99;100472.38;5046984;27;98310;-45
2021/10/05 07:21:34;;;;;;;0.87;0.80;;;20.60;99.90;;;20.63;51.99;100474.66;5064364;27;98179;-47
2021/10/05 07:24:00;;;;;;;0.83;0.83;;;20.60;99.90;;;20.66;51.69;100466.38;5036049;27;99119;-47
2021/10/05 07:26:26;;;;;;;0.97;0.90;;;20.60;99.80;;;20.64;51.82;100476.38;5065157;27;97194;-45
2021/10/05 07:28:51;;;;;;;1.10;0.90;;;20.60;99.90;;;20.63;51.39;100474.66;5053199;27;97017;-44
2021/10/05 07:31:17;;;;;;;1.17;0.83;;;20.70;99.30;;;20.65;51.63;100472.72;5046317;27;98242;-46
2021/10/05 07:33:44;;;;;;;0.70;0.70;;;20.60;99.90;;;20.64;51.88;100471.00;5069548;27;98641;-47
2021/10/05 07:36:11;;;;;;;0.70;0.70;;;20.70;99.80;;;20.68;51.79;100467.09;5049257;27;97200;-47
2021/10/05 07:38:37;;;;;;;1.40;0.97;;;20.70;99.90;;;20.69;50.49;100468.84;5050950;27;97602;-44
2021/10/05 07:41:04;;;;;;;1.20;0.97;;;20.70;98.80;;;20.69;48.65;100466.16;5068110;27;99849;-49
2021/10/05 07:43:30;;;;;;;0.70;0.70;;;20.70;98.50;;;20.71;51.83;100469.56;5072115;27;98689;-45
2021/10/05 07:45:58;;;;;;;0.70;0.70;;;20.80;99.70;;;20.72;51.59;100453.34;5066179;27;96866;-47
2021/10/05 07:48:25;;;;;;;0.70;0.70;;;20.70;99.80;;;20.73;51.51;100459.56;5054966;27;97101;-45
2021/10/05 07:50:52;;;;;;;0.80;0.80;;;20.80;99.70;;;20.76;51.43;100456.63;5071872;27;98814;-43
2021/10/05 07:53:18;;;;;;;0.80;0.63;;;20.80;99.70;;;20.72;51.64;100449.81;5045982;27;98161;-47
2021/10/05 07:55:44;;;;;;;0.70;0.70;;;20.80;99.70;;;20.74;51.43;100448.72;5052392;27;98586;-48
2021/10/05 07:58:10;;;;;;;0.80;0.67;;;20.80;99.60;;;20.75;51.55;100447.72;5067135;27;99578;-43
2021/10/05 08:00:36;;;;;;;0.90;0.83;;;20.80;99.70;;;20.78;51.37;100441.25;5048142;27;97618;-50
2021/10/05 08:03:02;;;;;;;0.70;0.70;;;20.80;99.60;;;20.71;51.55;100440.94;5065010;27;97144;-47
2021/10/05 08:05:29;;;;;;;0.80;0.60;;;20.80;99.60;;;20.68;51.67;100429.59;5051097;27;98315;-43
2021/10/05 08:07:58;;;;;;;1.47;1.10;;;20.80;99.60;;;20.71;51.40;100429.34;5063165;27;98899;-53
2021/10/05 08:10:24;;;;;;;1.33;0.70;;;20.80;99.30;;;20.74;51.28;100429.09;5069253;27;101625;-44
2021/10/05 08:12:51;;;;;;;0.77;0.70;;;20.80;99.30;;;20.71;51.49;100430.22;5069860;27;98917;-47
2021/10/05 08:15:17;;;;;;;1.23;1.13;;;20.80;99.50;;;20.71;49.72;100424.00;5033564;27;97772;-46
2021/10/05 08:17:43;;;;;;;2.07;1.37;;;20.80;98.80;;;20.79;51.16;100427.75;5054222;27;97276;-46
2021/10/05 08:20:10;;;;;;;2.17;1.80;;;20.80;98.90;;;20.73;50.12;100422.03;5051709;27;99483;-46
2021/10/05 08:22:37;;;;;;;0.80;0.80;;;20.80;98.10;;;20.70;51.16;100419.63;5051691;27;98617;-47
2021/10/05 08:25:04;;;;;;;2.33;2.13;;;20.70;99.20;;;20.57;48.27;100433.16;5050218;27;97436;-44
2021/10/05 08:27:30;;;;;;;0.97;0.90;;;20.60;97.60;;;20.57;51.55;100416.22;5067035;27;97475;-45
2021/10/05 08:29:56;;;;;;;1.20;1.10;;;20.50;99.70;;;20.54;51.60;100422.66;5052370;27;97369;-47
2021/10/05 08:32:22;;;;;;;0.73;0.70;;;20.50;99.70;;;20.49;52.17;100414.16;5071604;27;98274;-47
2021/10/05 08:34:48;;;;;;;1.03;1.00;;;20.50;99.90;;;20.54;51.52;100419.97;5051829;27;97000;-46
2021/10/05 08:37:14;;;;;;;0.73;0.70;;;20.50;99.40;;;20.60;51.68;100410.63;5064591;27;97449;-47
2021/10/05 08:39:40;;;;;;;2.30;1.50;;;20.60;99.80;;;20.62;49.61;100411.34;5048012;27;97932;-48
2021/10/05 08:42:06;;;;;;;2.50;1.23;;;20.70;98.90;;;20.57;49.25;100406.38;5068056;27;97184;-47
2021/10/05 08:44:33;;;;;;;4.17;1.57;;;20.60;98.20;;;20.58;51.56;100396.50;5048837;27;98380;-46
2021/10/05 08:47:00;;;;;;;1.27;0.93;;;20.60;99.10;;;20.42;52.21;100403.09;5047640;27;99240;-46
2021/10/05 08:49:27;;;;;;;1.03;0.93;;;20.30;99.90;;;20.47;49.88;100394.69;5048795;27;100423;-45
2021/10/05 08:51:54;;;;;;;0.63;0.63;;;20.40;99.00;;;20.49;52.13;100393.56;5058478;27;99776;-48
2021/10/05 08:54:21;;;;;;;0.87;0.87;;;20.50;99.90;;;20.53;51.92;100393.31;5068321;27;96790;-47
2021/10/05 08:56:47;;;;;;;1.30;1.00;;;20.50;99.90;;;20.47;52.17;100394.69;5059758;27;97428;-49
2021/10/05 08:59:14;;;;;;;0.80;0.80;;;20.40;99.50;;;20.56;51.83;100387.72;5049014;27;97716;-50
2021/10/05 09:01:40;;;;;;;0.77;0.77;;;20.50;99.90;;;20.53;52.19;100383.44;5057293;27;98310;-46
2021/10/05 09:04:07;;;;;;;0.93;0.87;;;20.50;99.90;;;20.53;50.72;100387.97;5067097;27;100890;-46
2021/10/05 09:06:35;;;;;;;1.33;1.10;;;20.60;99.30;;;20.56;51.42;100390.41;5048596;27;97824;-46
2021/10/05 09:09:05;;;;;;;1.10;0.73;;;20.60;98.80;;;20.58;51.22;100391.13;5048647;27;97665;-43
2021/10/05 09:11:52;;;;;;;0.80;0.70;;;20.60;99.20;;;20.55;51.34;100383.34;5066528;27;97542;-47
2021/10/05 09:14:18;;;;;;;0.93;0.73;;;20.50;99.20;;;20.50;52.12;100379.19;5069706;27;98939;-50
2021/10/05 09:16:44;;;;;;;1.47;0.90;;;20.50;99.90;;;20.45;52.08;100373.38;5049026;27;97185;-49
2021/10/05 09:19:17;;;;;;;1.10;1.00;;;20.40;99.80;;;20.49;52.18;100365.94;5044310;27;98243;-47
2021/10/05 09:21:55;;;;;;;1.27;1.07;;;20.40;99.90;;;20.47;49.04;100368.75;5073007;27;97032;-44
2021/10/05 09:24:25;;;;;;;0.80;0.80;;;20.40;98.20;;;20.39;49.30;100370.28;5053228;27;97266;-48
2021/10/05 09:26:55;;;;;;;1.60;1.20;;;20.30;98.10;;;20.35;51.68;100358.13;5055055;27;97196;-46
2021/10/05 09:29:25;;;;;;;3.37;1.10;;;20.20;98.80;;;20.11;51.41;100360.97;5054653;27;101867;-46
2021/10/05 09:32:14;;;;;;;1.87;1.00;;;19.90;98.40;;;20.00;50.52;100352.94;5056158;27;98306;-48
2021/10/05 09:34:50;;;;;;;0.90;0.90;;;19.80;98.10;;;20.01;53.03;100354.66;5051264;27;98191;-49
2021/10/05 09:37:24;;;;;;;1.90;0.83;;;19.80;99.90;;;20.09;52.69;100347.69;5069458;27;97652;-44
2021/10/05 09:40:13;;;;;;;2.90;1.10;;;19.90;99.90;;;20.09;52.99;100344.16;5068975;27;98606;-46
2021/10/05 09:42:44;;;;;;;1.00;0.90;;;19.90;99.90;;;20.08;52.67;100334.44;5049057;27;99657;-47
2021/10/05 09:45:13;;;;;;;1.20;0.90;;;19.90;99.90;;;20.17;52.88;100339.06;5066582;27;99570;-45
2021/10/05 09:47:47;;;;;;;0.63;0.57;;;20.00;99.90;;;20.20;50.09;100328.09;5070127;27;97095;-44
2021/10/05 09:50:28;;;;;;;0.63;0.60;;;20.20;99.50;;;20.24;52.68;100324.19;5042759;27;97122;-43
2021/10/05 09:53:06;;;;;;;0.80;0.80;;;20.20;99.90;;;20.29;52.79;100323.81;5046879;27;99503;-47
2021/10/05 09:55:39;;;;;;;0.77;0.77;;;20.30;99.90;;;20.36;52.29;100323.19;5063958;27;97103;-48
2021/10/05 09:58:06;;;;;;;0.80;0.77;;;20.40;99.90;;;20.40;52.16;100324.66;5066905;27;96940;-48
2021/10/05 10:00:37;;;;;;;0.97;0.70;;;20.50;99.80;;;20.48;52.21;100321.38;5048946;27;99997;-47
2021/10/05 10:03:06;;;;;;;1.50;0.60;;;20.50;99.90;;;20.47;50.46;100320.53;5052372;27;97819;-48
2021/10/05 10:05:36;;;;;;;1.10;0.73;;;20.60;99.30;;;20.56;51.89;100318.06;5055975;27;97377;-47
2021/10/05 10:08:03;;;;;;;1.00;0.90;;;20.60;99.90;;;20.57;51.79;100309.06;5048131;27;97002;-45
2021/10/05 10:10:33;;;;;;;1.53;0.80;;;20.60;99.90;;;20.57;48.77;100309.06;5053755;27;100220;-49
2021/10/05 10:13:04;;;;;;;4.07;1.13;;;20.60;98.00;;;20.42;47.82;100312.03;5044953;27;99243;-49
2021/10/05 10:15:36;;;;;;;0.70;0.53;;;20.40;96.10;;;20.54;52.00;100306.59;5069495;27;99323;-49